Time;durP1;ratioP1;P1;durP2;ratioP2;P2;SDS_P1;SDS_P2;PMS_P1;PMS_P2;Temp;Humidity;BMP_temperature;BMP_pressure;BME280_temperature;BME280_humidity;BME280_pressure;Samples;Min_cycle;Max_cycle;Signal;HPM_P1;HPM_P2
2023/11/27 00:01:26;;;;;;;9.25;5.03;;;2.60;99.90;;;;;;494070;241;27517;-72
2023/11/27 00:03:28;;;;;;;15.05;6.05;;;2.60;99.90;;;;;;494014;241;27638;-74
2023/11/27 00:05:29;;;;;;;7.45;4.53;;;2.60;99.90;;;;;;493997;241;27485;-72
2023/11/27 00:07:30;;;;;;;10.93;5.53;;;2.60;99.90;;;;;;494064;241;27628;-73
2023/11/27 00:09:32;;;;;;;9.82;5.00;;;2.60;99.90;;;;;;493974;241;27986;-72
2023/11/27 00:11:33;;;;;;;9.07;5.07;;;2.60;99.90;;;;;;494056;241;27927;-73
2023/11/27 00:13:34;;;;;;;9.70;5.20;;;2.60;99.90;;;;;;494074;241;28065;-73
2023/11/27 00:15:35;;;;;;;6.07;4.32;;;2.60;99.90;;;;;;494071;241;29107;-72
2023/11/27 00:17:37;;;;;;;9.10;4.97;;;2.60;99.90;;;;;;494038;241;27504;-73
2023/11/27 00:19:38;;;;;;;8.05;5.00;;;2.60;99.90;;;;;;494085;241;27573;-72
2023/11/27 00:21:39;;;;;;;13.43;5.65;;;2.60;99.90;;;;;;494044;241;27474;-73
2023/11/27 00:23:40;;;;;;;13.85;5.43;;;2.60;99.90;;;;;;494072;241;27529;-73
2023/11/27 00:25:42;;;;;;;13.27;5.15;;;2.60;99.90;;;;;;494050;241;27466;-72
2023/11/27 00:27:43;;;;;;;9.98;4.60;;;2.60;99.90;;;;;;494070;241;27481;-72
2023/11/27 00:29:44;;;;;;;12.15;5.22;;;2.50;99.90;;;;;;494073;241;27864;-72
2023/11/27 00:31:45;;;;;;;7.55;5.03;;;2.50;99.90;;;;;;493967;241;27607;-72
2023/11/27 00:33:47;;;;;;;10.57;4.47;;;2.50;99.90;;;;;;493954;241;28032;-72
2023/11/27 00:35:48;;;;;;;7.70;5.22;;;2.50;99.90;;;;;;493965;241;28080;-72
2023/11/27 00:37:49;;;;;;;7.68;4.35;;;2.40;99.90;;;;;;494059;241;29200;-74
2023/11/27 00:39:50;;;;;;;12.13;4.78;;;2.50;99.90;;;;;;494143;241;29069;-74
2023/11/27 00:41:52;;;;;;;19.42;5.50;;;2.50;99.90;;;;;;494012;241;27472;-72
2023/11/27 00:43:53;;;;;;;8.88;4.10;;;2.40;99.90;;;;;;494044;241;27501;-72
2023/11/27 00:45:54;;;;;;;9.02;4.47;;;2.50;99.90;;;;;;494061;241;27474;-72
2023/11/27 00:47:57;;;;;;;12.82;5.87;;;2.50;99.90;;;;;;493952;241;27473;-72
2023/11/27 00:49:57;;;;;;;13.80;5.12;;;2.50;99.90;;;;;;493836;241;27540;-72
2023/11/27 00:51:58;;;;;;;7.10;4.93;;;2.40;99.90;;;;;;494022;241;27586;-72
2023/11/27 00:53:59;;;;;;;10.98;6.22;;;2.40;99.90;;;;;;493987;241;27534;-73
2023/11/27 00:56:00;;;;;;;12.07;4.65;;;2.50;99.90;;;;;;493994;241;27509;-73
2023/11/27 00:58:02;;;;;;;10.98;5.87;;;2.50;99.90;;;;;;493995;241;27979;-73
2023/11/27 01:00:05;;;;;;;10.25;5.22;;;2.40;99.90;;;;;;493990;241;27993;-72
2023/11/27 01:02:04;;;;;;;8.90;5.10;;;2.40;99.90;;;;;;493841;241;27908;-72
2023/11/27 01:04:05;;;;;;;13.43;5.43;;;2.40;99.90;;;;;;494083;241;27625;-73
2023/11/27 01:06:07;;;;;;;7.35;4.57;;;2.50;99.90;;;;;;494105;241;27527;-73
2023/11/27 01:08:08;;;;;;;7.53;4.90;;;2.50;99.90;;;;;;493984;241;27501;-72
2023/11/27 01:10:09;;;;;;;6.28;4.85;;;2.50;99.90;;;;;;493995;241;27537;-73
2023/11/27 01:12:10;;;;;;;7.15;4.80;;;2.50;99.90;;;;;;494003;241;27555;-72
2023/11/27 01:14:12;;;;;;;12.82;5.43;;;2.50;99.90;;;;;;493993;241;27510;-72
2023/11/27 01:16:13;;;;;;;7.32;4.80;;;2.50;99.90;;;;;;494019;241;27579;-73
2023/11/27 01:18:14;;;;;;;9.93;4.55;;;2.50;99.90;;;;;;494084;241;27552;-73
2023/11/27 01:20:15;;;;;;;7.95;4.60;;;2.40;99.90;;;;;;494055;241;27596;-72
2023/11/27 01:22:17;;;;;;;10.57;5.43;;;2.40;99.90;;;;;;494063;241;28666;-72
2023/11/27 01:24:18;;;;;;;8.30;5.03;;;2.50;99.90;;;;;;493994;241;29120;-72
2023/11/27 01:26:19;;;;;;;9.52;4.72;;;2.50;99.90;;;;;;493961;239;28019;-73
2023/11/27 01:28:20;;;;;;;8.70;5.32;;;2.40;99.90;;;;;;494098;239;27588;-72
2023/11/27 01:30:22;;;;;;;19.25;5.57;;;2.40;99.90;;;;;;494026;241;27612;-72
2023/11/27 01:32:25;;;;;;;10.23;5.62;;;2.40;99.90;;;;;;493980;241;27508;-72
2023/11/27 01:34:24;;;;;;;7.55;4.47;;;2.50;99.90;;;;;;493871;241;27471;-72
2023/11/27 01:36:25;;;;;;;10.27;4.93;;;2.50;99.90;;;;;;493970;241;27529;-72
2023/11/27 01:38:27;;;;;;;9.68;5.37;;;2.50;99.90;;;;;;493999;241;27569;-72
2023/11/27 01:40:28;;;;;;;8.48;4.80;;;2.50;99.90;;;;;;494020;241;27502;-72
2023/11/27 01:42:29;;;;;;;6.18;4.93;;;2.40;99.90;;;;;;494103;241;27508;-73
2023/11/27 01:44:30;;;;;;;12.10;6.20;;;2.40;99.90;;;;;;494079;241;28034;-72
2023/11/27 01:46:32;;;;;;;10.55;6.07;;;2.40;99.90;;;;;;494023;241;29073;-72
2023/11/27 01:48:33;;;;;;;9.75;5.55;;;2.40;99.90;;;;;;494003;241;27462;-72
2023/11/27 01:50:34;;;;;;;10.63;5.72;;;2.40;99.90;;;;;;493999;241;27474;-72
2023/11/27 01:52:36;;;;;;;9.70;4.80;;;2.40;99.90;;;;;;494037;241;27615;-73
2023/11/27 01:54:38;;;;;;;11.98;6.37;;;2.40;99.90;;;;;;494012;241;27554;-72
2023/11/27 01:56:38;;;;;;;16.12;6.10;;;2.40;99.90;;;;;;493970;241;27522;-72
2023/11/27 01:58:40;;;;;;;13.48;5.43;;;2.40;99.90;;;;;;494092;241;27513;-72
2023/11/27 02:00:40;;;;;;;11.10;5.53;;;2.40;99.90;;;;;;494100;241;27458;-73
2023/11/27 02:02:42;;;;;;;8.93;4.95;;;2.40;99.90;;;;;;494070;241;27501;-73
2023/11/27 02:04:43;;;;;;;12.52;4.75;;;2.40;99.90;;;;;;494107;237;28045;-72
2023/11/27 02:06:44;;;;;;;7.65;4.97;;;2.40;99.90;;;;;;494105;241;29168;-73
2023/11/27 02:08:45;;;;;;;11.82;5.80;;;2.40;99.90;;;;;;493995;241;27506;-73
2023/11/27 02:10:47;;;;;;;8.43;5.47;;;2.40;99.90;;;;;;494010;241;27524;-72
2023/11/27 02:12:48;;;;;;;10.40;5.62;;;2.30;99.90;;;;;;493992;241;27509;-72
2023/11/27 02:14:52;;;;;;;16.10;5.50;;;2.30;99.90;;;;;;493964;241;27474;-72
2023/11/27 02:16:50;;;;;;;12.25;5.60;;;2.30;99.90;;;;;;493856;241;27601;-72
2023/11/27 02:18:52;;;;;;;11.10;5.35;;;2.30;99.90;;;;;;493988;241;27616;-73
2023/11/27 02:20:53;;;;;;;8.95;4.95;;;2.30;99.90;;;;;;494004;241;27584;-72
2023/11/27 02:22:54;;;;;;;20.42;6.87;;;2.30;99.90;;;;;;494055;241;27481;-75
2023/11/27 02:24:55;;;;;;;5.87;4.70;;;2.20;99.90;;;;;;494003;241;27924;-72
2023/11/27 02:26:57;;;;;;;7.20;4.40;;;2.20;99.90;;;;;;494001;241;28011;-72
2023/11/27 02:28:58;;;;;;;8.65;5.87;;;2.30;99.90;;;;;;494033;241;28011;-73
2023/11/27 02:30:59;;;;;;;6.93;4.90;;;2.30;99.90;;;;;;493995;241;27919;-72
2023/11/27 02:33:01;;;;;;;12.27;5.80;;;2.30;99.90;;;;;;493827;241;27520;-73
2023/11/27 02:35:02;;;;;;;10.05;5.10;;;2.30;99.90;;;;;;493989;241;27517;-72
2023/11/27 02:37:03;;;;;;;11.95;7.18;;;2.30;99.90;;;;;;493971;241;27586;-73
2023/11/27 02:39:06;;;;;;;14.25;6.00;;;2.30;99.90;;;;;;493993;241;27597;-73
2023/11/27 02:41:06;;;;;;;15.80;5.95;;;2.30;99.90;;;;;;493880;239;27597;-72
2023/11/27 02:43:07;;;;;;;9.88;5.60;;;2.30;99.90;;;;;;493967;241;27627;-72
2023/11/27 02:45:08;;;;;;;5.30;4.55;;;2.30;99.90;;;;;;493985;241;27540;-75
2023/11/27 02:47:09;;;;;;;7.30;4.60;;;2.30;99.90;;;;;;493994;241;27932;-72
2023/11/27 02:49:10;;;;;;;8.80;4.93;;;2.20;99.90;;;;;;493979;241;29041;-72
2023/11/27 02:51:12;;;;;;;9.05;4.70;;;2.20;99.90;;;;;;493955;241;28025;-72
2023/11/27 02:53:13;;;;;;;12.55;5.75;;;2.20;99.90;;;;;;493998;241;27478;-72
2023/11/27 02:55:14;;;;;;;6.25;4.50;;;2.20;99.90;;;;;;494061;241;27514;-73
2023/11/27 02:57:16;;;;;;;11.27;6.37;;;2.20;99.90;;;;;;494072;241;27467;-72
2023/11/27 02:59:18;;;;;;;8.50;5.25;;;2.20;99.90;;;;;;494086;237;27599;-72
2023/11/27 03:01:18;;;;;;;10.27;5.47;;;2.20;99.90;;;;;;493910;241;27596;-72
2023/11/27 03:03:19;;;;;;;8.02;4.90;;;2.20;99.90;;;;;;493985;241;27484;-72
2023/11/27 03:05:20;;;;;;;14.57;5.85;;;2.20;99.90;;;;;;493998;241;27500;-73
2023/11/27 03:07:22;;;;;;;8.32;4.35;;;2.20;99.90;;;;;;493949;241;27456;-72
2023/11/27 03:09:23;;;;;;;13.20;6.03;;;2.20;99.90;;;;;;493969;241;27964;-73
2023/11/27 03:11:24;;;;;;;12.00;5.80;;;2.20;99.90;;;;;;494067;241;28062;-74
2023/11/27 03:13:25;;;;;;;11.95;4.82;;;2.20;99.90;;;;;;494090;237;27944;-72
2023/11/27 03:15:27;;;;;;;9.98;5.43;;;2.20;99.90;;;;;;494048;241;27497;-73
2023/11/27 03:17:28;;;;;;;17.25;6.87;;;2.20;99.90;;;;;;494036;241;27504;-73
2023/11/27 03:19:29;;;;;;;14.25;6.35;;;2.20;99.90;;;;;;494053;241;27502;-72
2023/11/27 03:21:31;;;;;;;7.47;4.70;;;2.20;99.90;;;;;;494073;241;27505;-72
2023/11/27 03:23:32;;;;;;;9.48;5.70;;;2.10;99.90;;;;;;494059;241;27493;-72
2023/11/27 03:25:33;;;;;;;8.60;5.95;;;2.20;99.90;;;;;;494030;241;27521;-73
2023/11/27 03:27:35;;;;;;;7.40;4.90;;;2.10;99.90;;;;;;494071;241;27473;-72
2023/11/27 03:29:36;;;;;;;7.85;5.25;;;2.10;99.90;;;;;;494052;241;27470;-73
2023/11/27 03:31:37;;;;;;;8.02;4.82;;;2.10;99.90;;;;;;494075;241;27506;-73
2023/11/27 03:33:38;;;;;;;8.98;5.03;;;2.10;99.90;;;;;;494058;241;27965;-72
2023/11/27 03:35:39;;;;;;;10.60;5.25;;;2.10;99.90;;;;;;494047;241;28014;-73
2023/11/27 03:37:41;;;;;;;8.25;4.65;;;2.10;99.90;;;;;;493986;241;29811;-72
2023/11/27 03:39:42;;;;;;;8.38;4.95;;;2.10;99.90;;;;;;493984;241;27949;-72
2023/11/27 03:41:43;;;;;;;10.48;5.35;;;2.10;99.90;;;;;;493995;241;27497;-73
2023/11/27 03:43:44;;;;;;;13.80;5.80;;;2.10;99.90;;;;;;494062;241;27510;-72
2023/11/27 03:45:46;;;;;;;14.20;4.90;;;2.10;99.90;;;;;;494088;241;27494;-72
2023/11/27 03:47:47;;;;;;;8.55;5.50;;;2.10;99.90;;;;;;494081;241;27854;-73
2023/11/27 03:49:48;;;;;;;11.90;4.95;;;2.10;99.90;;;;;;493951;241;27604;-72
2023/11/27 03:51:49;;;;;;;13.43;4.80;;;2.10;99.90;;;;;;493984;241;27628;-72
2023/11/27 03:53:51;;;;;;;12.70;6.45;;;2.10;99.90;;;;;;493969;241;27493;-72
2023/11/27 03:55:52;;;;;;;10.68;5.70;;;2.10;99.90;;;;;;494051;241;27950;-72
2023/11/27 03:57:53;;;;;;;8.68;5.20;;;2.10;99.90;;;;;;494056;241;28224;-73
2023/11/27 03:59:54;;;;;;;7.95;5.03;;;2.10;99.90;;;;;;494078;241;27938;-72
2023/11/27 04:01:56;;;;;;;9.73;4.95;;;2.10;99.90;;;;;;493975;241;27962;-72
2023/11/27 04:03:57;;;;;;;11.05;5.32;;;2.10;99.90;;;;;;493990;241;27579;-73
2023/11/27 04:05:58;;;;;;;8.38;4.68;;;2.10;99.90;;;;;;493965;241;27532;-72
2023/11/27 04:07:59;;;;;;;8.38;5.00;;;2.10;99.90;;;;;;493987;241;27533;-72
2023/11/27 04:10:01;;;;;;;7.22;5.40;;;2.10;99.90;;;;;;493974;241;27457;-72
2023/11/27 04:12:05;;;;;;;10.40;5.55;;;2.10;99.90;;;;;;493991;241;27505;-72
2023/11/27 04:14:03;;;;;;;9.27;6.28;;;2.10;99.90;;;;;;493748;241;27888;-74
2023/11/27 04:16:04;;;;;;;7.28;4.45;;;2.10;99.90;;;;;;494088;240;27477;-72
2023/11/27 04:18:06;;;;;;;8.63;4.00;;;2.10;99.90;;;;;;494085;241;27517;-73
2023/11/27 04:20:07;;;;;;;8.05;4.93;;;2.10;99.90;;;;;;494082;241;27472;-72
2023/11/27 04:22:08;;;;;;;12.40;5.28;;;2.10;99.90;;;;;;494064;241;28313;-73
2023/11/27 04:24:09;;;;;;;11.45;5.00;;;2.10;99.90;;;;;;494084;241;27937;-73
2023/11/27 04:26:12;;;;;;;7.25;4.45;;;2.10;99.90;;;;;;494102;241;27926;-73
2023/11/27 04:28:12;;;;;;;8.68;4.57;;;2.10;99.90;;;;;;493892;241;27550;-73
2023/11/27 04:30:13;;;;;;;6.97;4.57;;;2.00;99.90;;;;;;494098;241;27519;-72
2023/11/27 04:32:14;;;;;;;12.93;4.47;;;2.10;99.90;;;;;;494091;237;27588;-73
2023/11/27 04:34:16;;;;;;;6.35;4.07;;;2.00;99.90;;;;;;493985;241;27492;-74
2023/11/27 04:36:18;;;;;;;9.07;5.00;;;2.00;99.90;;;;;;494014;241;27490;-72
2023/11/27 04:38:18;;;;;;;5.95;4.18;;;2.00;99.90;;;;;;494008;241;27639;-73
2023/11/27 04:40:20;;;;;;;7.40;4.05;;;2.00;99.90;;;;;;494088;241;27571;-72
2023/11/27 04:42:21;;;;;;;12.27;5.30;;;2.00;99.90;;;;;;494108;241;27466;-72
2023/11/27 04:44:23;;;;;;;7.95;4.65;;;2.00;99.90;;;;;;493991;241;27516;-72
2023/11/27 04:46:24;;;;;;;9.32;4.50;;;2.00;99.90;;;;;;493994;241;28026;-72
2023/11/27 04:48:24;;;;;;;11.27;5.05;;;2.00;99.90;;;;;;494041;241;27985;-73
2023/11/27 04:50:26;;;;;;;17.05;5.70;;;2.00;99.90;;;;;;494076;241;28193;-74
2023/11/27 04:52:27;;;;;;;4.37;3.83;;;2.00;99.90;;;;;;493998;241;27470;-72
2023/11/27 04:54:28;;;;;;;9.80;4.65;;;2.00;99.90;;;;;;493983;241;27523;-73
2023/11/27 04:56:29;;;;;;;7.87;4.85;;;2.00;99.90;;;;;;494035;241;27465;-72
2023/11/27 04:58:31;;;;;;;13.00;4.45;;;2.00;99.90;;;;;;493942;241;27615;-72
2023/11/27 05:00:32;;;;;;;5.90;3.85;;;2.00;99.90;;;;;;493991;241;27523;-73
2023/11/27 05:02:33;;;;;;;11.50;4.45;;;2.00;99.90;;;;;;493969;241;27573;-72
2023/11/27 05:04:34;;;;;;;14.48;4.97;;;2.00;99.90;;;;;;493940;241;27513;-73
2023/11/27 05:06:36;;;;;;;4.90;3.72;;;2.00;99.90;;;;;;493943;241;27470;-72
2023/11/27 05:08:37;;;;;;;7.47;4.25;;;2.00;99.90;;;;;;494013;241;27576;-72
2023/11/27 05:10:39;;;;;;;10.25;4.70;;;2.00;99.90;;;;;;493994;241;28078;-73
2023/11/27 05:12:39;;;;;;;6.72;4.40;;;2.00;99.90;;;;;;493967;241;27980;-73
2023/11/27 05:14:41;;;;;;;8.30;4.22;;;2.00;99.90;;;;;;493964;241;29085;-71
2023/11/27 05:16:42;;;;;;;5.28;4.50;;;2.00;99.90;;;;;;493997;241;27990;-72
2023/11/27 05:18:43;;;;;;;7.87;4.25;;;2.00;99.90;;;;;;493949;241;27467;-72
2023/11/27 05:20:44;;;;;;;9.90;4.55;;;2.00;99.90;;;;;;494000;241;27501;-73
2023/11/27 05:22:46;;;;;;;8.90;4.18;;;2.00;99.90;;;;;;494046;237;27451;-73
2023/11/27 05:24:47;;;;;;;7.70;4.43;;;2.00;99.90;;;;;;494096;241;27489;-73
2023/11/27 05:26:48;;;;;;;5.35;3.92;;;2.00;99.90;;;;;;494143;241;27845;-73
2023/11/27 05:28:49;;;;;;;7.25;4.28;;;2.00;99.90;;;;;;494121;241;27930;-73
2023/11/27 05:30:51;;;;;;;5.75;4.00;;;2.00;99.90;;;;;;494054;241;27487;-72
2023/11/27 05:32:52;;;;;;;14.75;4.90;;;2.00;99.90;;;;;;494028;239;27567;-72
2023/11/27 05:34:53;;;;;;;8.48;4.70;;;2.00;99.90;;;;;;493990;241;27512;-73
2023/11/27 05:36:54;;;;;;;7.87;3.70;;;2.00;99.90;;;;;;493977;241;27523;-74
2023/11/27 05:38:56;;;;;;;6.25;4.00;;;2.00;99.90;;;;;;494000;241;27466;-72
2023/11/27 05:40:58;;;;;;;6.62;3.97;;;2.00;99.90;;;;;;494022;241;27505;-72
2023/11/27 05:43:04;;;;;;;6.62;3.92;;;2.00;99.90;;;;;;493942;241;27513;-72
2023/11/27 05:44:59;;;;;;;4.95;3.67;;;2.10;99.90;;;;;;493535;241;27537;-73
2023/11/27 05:47:01;;;;;;;8.55;3.97;;;2.00;99.90;;;;;;494073;241;27597;-72
2023/11/27 05:49:02;;;;;;;8.15;3.80;;;2.10;99.90;;;;;;494085;241;27525;-72
2023/11/27 05:51:03;;;;;;;7.87;4.10;;;2.00;99.90;;;;;;494009;241;28044;-73
2023/11/27 05:53:04;;;;;;;7.43;4.25;;;2.10;99.90;;;;;;494018;241;28066;-74
2023/11/27 05:55:06;;;;;;;8.00;4.10;;;2.00;99.90;;;;;;493992;241;28016;-72
2023/11/27 05:57:08;;;;;;;8.70;4.25;;;2.00;99.90;;;;;;493997;241;27994;-72
2023/11/27 05:59:08;;;;;;;14.77;5.10;;;2.10;99.90;;;;;;494060;241;27567;-72
2023/11/27 06:01:09;;;;;;;9.23;4.85;;;2.10;99.90;;;;;;493967;241;27509;-72
2023/11/27 06:03:11;;;;;;;11.70;4.68;;;2.00;99.90;;;;;;494103;241;27542;-75
2023/11/27 06:05:12;;;;;;;11.68;4.57;;;2.00;99.90;;;;;;494049;241;27468;-73
2023/11/27 06:07:14;;;;;;;7.10;3.67;;;2.00;99.90;;;;;;493999;241;27528;-72
2023/11/27 06:09:15;;;;;;;7.20;4.40;;;2.10;99.90;;;;;;494017;241;27464;-72
2023/11/27 06:11:16;;;;;;;9.57;4.10;;;2.10;99.90;;;;;;494048;241;27597;-72
2023/11/27 06:13:17;;;;;;;8.55;4.28;;;2.10;99.90;;;;;;494006;241;27584;-73
2023/11/27 06:15:18;;;;;;;9.32;4.70;;;2.10;99.90;;;;;;493972;241;28004;-72
2023/11/27 06:17:20;;;;;;;7.68;4.22;;;2.10;99.90;;;;;;493970;241;27973;-72
2023/11/27 06:19:22;;;;;;;9.57;4.55;;;2.10;99.90;;;;;;493983;241;28714;-73
2023/11/27 06:21:22;;;;;;;7.95;4.68;;;2.10;99.90;;;;;;493972;241;28802;-72
2023/11/27 06:23:23;;;;;;;12.57;4.43;;;2.00;99.90;;;;;;493992;241;27605;-74
2023/11/27 06:25:25;;;;;;;8.15;4.87;;;2.10;99.90;;;;;;494000;241;27565;-72
2023/11/27 06:27:26;;;;;;;10.55;4.37;;;2.00;99.90;;;;;;494051;237;27679;-73
2023/11/27 06:29:27;;;;;;;8.60;3.80;;;2.10;99.90;;;;;;493998;241;27497;-73
2023/11/27 06:31:28;;;;;;;12.95;4.45;;;2.10;99.90;;;;;;494006;241;27515;-72
2023/11/27 06:33:29;;;;;;;16.02;5.18;;;2.10;99.90;;;;;;494058;241;27514;-73
2023/11/27 06:35:31;;;;;;;6.22;4.80;;;2.10;99.90;;;;;;493970;241;27481;-72
2023/11/27 06:37:32;;;;;;;14.27;4.60;;;2.10;99.90;;;;;;494004;241;27581;-72
2023/11/27 06:39:33;;;;;;;6.87;4.20;;;2.10;99.90;;;;;;493992;241;27965;-72
2023/11/27 06:41:34;;;;;;;11.40;4.55;;;2.10;99.90;;;;;;493964;241;28013;-72
2023/11/27 06:43:36;;;;;;;10.23;4.32;;;2.10;99.90;;;;;;494004;241;28008;-72
2023/11/27 06:45:37;;;;;;;11.93;4.50;;;2.10;99.90;;;;;;494057;241;27809;-72
2023/11/27 06:47:38;;;;;;;10.05;4.45;;;2.10;99.90;;;;;;494093;237;27596;-72
2023/11/27 06:49:39;;;;;;;7.93;4.30;;;2.10;99.90;;;;;;494075;241;27531;-72
2023/11/27 06:51:42;;;;;;;8.85;4.15;;;2.10;99.90;;;;;;494049;241;27553;-73
2023/11/27 06:53:42;;;;;;;6.80;4.40;;;2.10;99.90;;;;;;494014;241;27647;-72
2023/11/27 06:55:43;;;;;;;7.60;5.03;;;2.10;99.90;;;;;;494079;241;27541;-72
2023/11/27 06:57:44;;;;;;;7.75;4.68;;;2.10;99.90;;;;;;493999;241;27585;-72
2023/11/27 06:59:46;;;;;;;7.90;4.65;;;2.10;99.90;;;;;;493941;241;27514;-73
2023/11/27 07:01:47;;;;;;;9.52;4.53;;;2.10;99.90;;;;;;493863;241;27462;-72
2023/11/27 07:03:48;;;;;;;7.30;4.12;;;2.10;99.90;;;;;;493913;241;27966;-72
2023/11/27 07:05:50;;;;;;;6.87;4.20;;;2.10;99.90;;;;;;494057;241;28040;-75
2023/11/27 07:07:51;;;;;;;8.65;4.28;;;2.10;99.90;;;;;;494029;241;27470;-72
2023/11/27 07:09:56;;;;;;;6.18;3.85;;;2.10;99.90;;;;;;494023;241;27536;-72
2023/11/27 07:11:53;;;;;;;9.55;4.18;;;2.10;99.90;;;;;;493797;241;27567;-73
2023/11/27 07:13:55;;;;;;;6.28;4.12;;;2.10;99.90;;;;;;494052;241;27470;-72
2023/11/27 07:15:56;;;;;;;7.72;4.05;;;2.10;99.90;;;;;;494063;241;27545;-72
2023/11/27 07:18:00;;;;;;;11.02;4.12;;;2.10;99.90;;;;;;494030;241;27489;-72
2023/11/27 07:19:58;;;;;;;7.93;4.47;;;2.10;99.90;;;;;;493791;241;27499;-73
2023/11/27 07:22:01;;;;;;;10.10;4.40;;;2.10;99.90;;;;;;493970;241;27497;-72
2023/11/27 07:24:01;;;;;;;6.50;3.97;;;2.10;99.90;;;;;;494007;241;27904;-73
2023/11/27 07:26:04;;;;;;;5.90;3.80;;;2.10;99.90;;;;;;494088;241;28056;-73
2023/11/27 07:28:04;;;;;;;6.30;4.43;;;2.10;99.90;;;;;;493891;241;28038;-73
2023/11/27 07:30:05;;;;;;;9.43;4.70;;;2.20;99.90;;;;;;493969;241;27584;-72
2023/11/27 07:32:06;;;;;;;13.68;4.12;;;2.20;99.90;;;;;;494117;241;27477;-72
2023/11/27 07:34:07;;;;;;;9.18;4.60;;;2.20;99.90;;;;;;494093;241;27469;-73
2023/11/27 07:36:08;;;;;;;6.07;4.03;;;2.20;99.90;;;;;;494077;241;27559;-73
2023/11/27 07:38:10;;;;;;;16.05;4.60;;;2.20;99.90;;;;;;494083;241;27517;-72
2023/11/27 07:40:14;;;;;;;7.57;4.55;;;2.20;99.90;;;;;;493983;241;27505;-73
2023/11/27 07:42:14;;;;;;;7.28;3.53;;;2.20;99.90;;;;;;493794;241;27564;-73
2023/11/27 07:44:15;;;;;;;10.13;4.05;;;2.20;99.90;;;;;;493909;241;27525;-72
2023/11/27 07:46:15;;;;;;;8.45;5.03;;;2.20;99.90;;;;;;493878;241;27602;-73
2023/11/27 07:48:16;;;;;;;7.70;4.30;;;2.30;99.90;;;;;;494051;241;28867;-72
2023/11/27 07:50:17;;;;;;;10.57;4.43;;;2.30;99.90;;;;;;494092;241;27980;-72
2023/11/27 07:52:18;;;;;;;10.50;4.75;;;2.30;99.90;;;;;;493997;241;29069;-75
2023/11/27 07:54:20;;;;;;;11.27;4.53;;;2.30;99.90;;;;;;494081;241;27473;-72
2023/11/27 07:56:21;;;;;;;8.77;4.10;;;2.30;99.90;;;;;;494012;241;27577;-72
2023/11/27 07:58:22;;;;;;;5.57;3.95;;;2.30;99.90;;;;;;494090;241;27540;-72
2023/11/27 08:00:26;;;;;;;12.13;4.30;;;2.30;99.90;;;;;;494067;241;27463;-72
2023/11/27 08:02:25;;;;;;;13.90;4.55;;;2.30;99.90;;;;;;493825;241;27497;-72
2023/11/27 08:04:26;;;;;;;8.35;4.47;;;2.30;99.90;;;;;;493979;241;27545;-72
2023/11/27 08:06:27;;;;;;;7.62;4.15;;;2.20;99.90;;;;;;493991;241;27585;-73
2023/11/27 08:08:28;;;;;;;6.30;4.55;;;2.30;99.90;;;;;;493980;241;27549;-73
2023/11/27 08:10:30;;;;;;;7.62;4.30;;;2.30;99.90;;;;;;494081;241;27609;-72
2023/11/27 08:12:31;;;;;;;13.05;4.55;;;2.30;99.90;;;;;;494063;241;27580;-73
2023/11/27 08:14:33;;;;;;;8.70;4.25;;;2.30;99.90;;;;;;494037;241;27473;-72
2023/11/27 08:16:33;;;;;;;10.00;4.45;;;2.40;99.90;;;;;;493957;241;27577;-72
2023/11/27 08:18:35;;;;;;;10.38;4.47;;;2.40;99.90;;;;;;493984;241;27620;-72
2023/11/27 08:20:38;;;;;;;12.07;4.75;;;2.50;99.90;;;;;;493979;241;27470;-72
2023/11/27 08:22:37;;;;;;;8.35;3.90;;;2.50;99.90;;;;;;493853;241;27502;-72
2023/11/27 08:24:40;;;;;;;18.92;4.37;;;2.50;99.90;;;;;;494003;241;28177;-73
2023/11/27 08:26:40;;;;;;;7.10;4.32;;;2.50;99.90;;;;;;493983;241;28008;-72
2023/11/27 08:28:41;;;;;;;10.95;4.72;;;2.50;99.90;;;;;;494027;237;27979;-73
2023/11/27 08:30:42;;;;;;;9.63;3.65;;;2.50;99.90;;;;;;494059;239;27482;-72
2023/11/27 08:32:43;;;;;;;7.60;4.62;;;2.50;99.90;;;;;;494049;241;27497;-72
2023/11/27 08:34:45;;;;;;;9.48;3.97;;;2.50;99.90;;;;;;494079;241;27555;-73
2023/11/27 08:36:46;;;;;;;10.57;3.92;;;2.50;99.90;;;;;;494026;241;27474;-72
2023/11/27 08:38:47;;;;;;;8.23;4.78;;;2.50;99.90;;;;;;494098;241;27504;-73
2023/11/27 08:40:48;;;;;;;11.68;5.20;;;2.50;99.90;;;;;;494104;241;27613;-72
2023/11/27 08:42:50;;;;;;;8.05;4.35;;;2.50;99.90;;;;;;494083;241;27517;-72
2023/11/27 08:44:51;;;;;;;10.52;4.40;;;2.50;99.90;;;;;;494067;241;27532;-73
2023/11/27 08:46:52;;;;;;;6.47;4.28;;;2.50;99.90;;;;;;493935;241;27467;-73
2023/11/27 08:48:54;;;;;;;13.57;4.68;;;2.50;99.90;;;;;;493976;241;27961;-72
2023/11/27 08:50:55;;;;;;;12.70;4.25;;;2.50;99.90;;;;;;493975;241;28737;-72
2023/11/27 08:52:59;;;;;;;6.68;4.20;;;2.60;99.90;;;;;;493960;241;27992;-72
2023/11/27 08:54:57;;;;;;;11.60;5.10;;;2.50;99.90;;;;;;493775;241;27525;-73
2023/11/27 08:56:58;;;;;;;12.93;4.95;;;2.50;99.90;;;;;;493962;241;27517;-72
2023/11/27 08:59:00;;;;;;;11.82;5.43;;;2.50;99.90;;;;;;493933;241;27504;-72
2023/11/27 09:01:05;;;;;;;18.33;4.32;;;2.50;99.90;;;;;;493997;241;27502;-73
2023/11/27 09:03:02;;;;;;;9.23;4.50;;;2.60;99.90;;;;;;493808;241;27623;-72
2023/11/27 09:05:05;;;;;;;10.02;3.90;;;2.60;99.90;;;;;;494068;237;27541;-72
2023/11/27 09:07:05;;;;;;;10.90;4.28;;;2.60;99.90;;;;;;494024;241;27476;-72
2023/11/27 09:09:07;;;;;;;9.65;4.28;;;2.60;99.90;;;;;;493983;241;27510;-72
2023/11/27 09:11:08;;;;;;;11.00;4.10;;;2.70;99.90;;;;;;493967;241;28101;-74
2023/11/27 09:13:09;;;;;;;12.50;4.90;;;2.70;99.90;;;;;;493939;241;28004;-72
2023/11/27 09:15:10;;;;;;;5.97;3.70;;;2.70;99.90;;;;;;493986;241;29123;-73
2023/11/27 09:17:11;;;;;;;9.13;3.70;;;2.70;99.90;;;;;;493949;241;27567;-72
2023/11/27 09:19:12;;;;;;;6.12;4.90;;;2.60;99.90;;;;;;493970;241;27489;-72
2023/11/27 09:21:13;;;;;;;12.13;4.20;;;2.60;99.90;;;;;;493995;241;27509;-73
2023/11/27 09:23:15;;;;;;;8.25;4.10;;;2.60;99.90;;;;;;493991;241;27474;-72
2023/11/27 09:25:16;;;;;;;9.70;3.92;;;2.50;99.90;;;;;;493968;241;27601;-72
2023/11/27 09:27:17;;;;;;;6.25;3.92;;;2.60;99.90;;;;;;493988;237;27981;-74
2023/11/27 09:29:18;;;;;;;7.85;3.75;;;2.50;99.90;;;;;;494008;241;27647;-72
2023/11/27 09:31:21;;;;;;;5.28;3.78;;;2.50;99.90;;;;;;494003;241;27520;-72
2023/11/27 09:33:21;;;;;;;6.55;4.03;;;2.50;99.90;;;;;;493847;241;27477;-72
2023/11/27 09:35:22;;;;;;;6.85;3.97;;;2.50;99.90;;;;;;494041;241;27985;-72
2023/11/27 09:37:23;;;;;;;5.68;3.10;;;2.40;99.90;;;;;;493990;241;28038;-74
2023/11/27 09:39:25;;;;;;;9.25;4.10;;;2.50;99.90;;;;;;494014;241;27995;-72
2023/11/27 09:41:26;;;;;;;10.00;3.90;;;2.40;99.90;;;;;;493999;241;27542;-72
2023/11/27 09:43:27;;;;;;;8.35;3.70;;;2.40;99.90;;;;;;494060;241;27607;-72
2023/11/27 09:45:28;;;;;;;6.80;4.12;;;2.40;99.90;;;;;;493999;241;27606;-72
2023/11/27 09:47:30;;;;;;;7.20;3.70;;;2.40;99.90;;;;;;494033;241;27575;-72
2023/11/27 09:49:31;;;;;;;5.93;3.80;;;2.40;99.90;;;;;;494073;237;27477;-72
2023/11/27 09:51:33;;;;;;;7.25;4.10;;;2.50;99.90;;;;;;494055;237;27620;-72
2023/11/27 09:53:40;;;;;;;7.55;3.90;;;2.40;99.90;;;;;;493949;241;27513;-74
2023/11/27 09:55:35;;;;;;;7.30;4.00;;;2.40;99.90;;;;;;493457;241;27486;-72
2023/11/27 09:57:36;;;;;;;10.13;4.20;;;2.40;99.90;;;;;;494012;241;27532;-72
2023/11/27 09:59:39;;;;;;;6.32;3.92;;;2.30;99.90;;;;;;494014;241;28123;-72
2023/11/27 10:01:38;;;;;;;14.48;4.80;;;2.30;99.90;;;;;;493977;241;28057;-72
2023/11/27 10:03:43;;;;;;;9.32;4.70;;;2.30;99.90;;;;;;494054;237;29378;-73
2023/11/27 10:05:43;;;;;;;9.10;4.35;;;2.40;99.90;;;;;;493814;241;27537;-72
2023/11/27 10:07:46;;;;;;;9.23;4.43;;;2.30;99.90;;;;;;493906;241;27510;-72
2023/11/27 10:09:44;;;;;;;10.00;4.35;;;2.40;99.90;;;;;;493845;241;27586;-73
2023/11/27 10:11:50;;;;;;;6.93;4.87;;;2.40;99.90;;;;;;494050;241;27497;-72
2023/11/27 10:13:46;;;;;;;6.03;4.80;;;2.30;99.90;;;;;;493652;241;27524;-74
2023/11/27 10:15:53;;;;;;;7.28;3.95;;;2.40;99.90;;;;;;494178;241;27482;-72
2023/11/27 10:17:49;;;;;;;7.43;4.70;;;2.40;99.90;;;;;;493679;241;27550;-72
2023/11/27 10:19:50;;;;;;;5.80;4.10;;;2.40;99.90;;;;;;494138;241;27472;-72
2023/11/27 10:21:51;;;;;;;6.15;4.18;;;2.40;99.90;;;;;;494017;241;27477;-72
2023/11/27 10:23:52;;;;;;;9.93;4.62;;;2.40;99.90;;;;;;494034;241;27510;-72
2023/11/27 10:25:54;;;;;;;14.23;4.87;;;2.40;99.90;;;;;;493998;241;28039;-72
2023/11/27 10:27:55;;;;;;;4.60;3.47;;;2.40;99.90;;;;;;494050;241;29099;-73
2023/11/27 10:29:58;;;;;;;6.35;3.47;;;2.30;99.90;;;;;;494097;237;28848;-72
2023/11/27 10:32:02;;;;;;;7.68;3.78;;;2.40;99.90;;;;;;493940;241;27586;-72
2023/11/27 10:33:59;;;;;;;7.25;3.62;;;2.40;99.90;;;;;;493640;241;27622;-72
2023/11/27 10:36:00;;;;;;;7.37;3.85;;;2.40;99.90;;;;;;493984;241;27560;-72